Time;durP1;ratioP1;P1;durP2;ratioP2;P2;SDS_P1;SDS_P2;PMS_P1;PMS_P2;Temp;Humidity;BMP_temperature;BMP_pressure;BME280_temperature;BME280_humidity;BME280_pressure;Samples;Min_cycle;Max_cycle;Signal;HPM_P1;HPM_P2
2023/09/15 00:01:41;;;;;;;;;;;;;;;17.08;100.00;99826.22;5014769;28;847;-59
2023/09/15 00:04:11;;;;;;;;;;;;;;;17.12;100.00;99812.94;5014610;28;1914;-59
2023/09/15 00:06:39;;;;;;;;;;;;;;;17.13;100.00;99815.28;5014578;28;899;-59
2023/09/15 00:09:14;;;;;;;;;;;;;;;17.13;100.00;99815.28;5014492;28;886;-60
2023/09/15 00:11:42;;;;;;;;;;;;;;;17.18;100.00;99818.75;5014468;28;856;-60
2023/09/15 00:14:10;;;;;;;;;;;;;;;17.27;100.00;99816.06;5014321;28;1087;-60
2023/09/15 00:16:40;;;;;;;;;;;;;;;17.34;100.00;99818.63;5014278;28;846;-59
2023/09/15 00:19:13;;;;;;;;;;;;;;;17.46;100.00;99817.03;5014486;28;871;-59
2023/09/15 00:21:40;;;;;;;;;;;;;;;17.53;100.00;99814.00;5013501;28;824;-59
2023/09/15 00:24:08;;;;;;;;;;;;;;;17.60;100.00;99813.75;5014167;28;875;-60
2023/09/15 00:26:35;;;;;;;;;;;;;;;17.69;100.00;99811.06;5014102;28;902;-59
2023/09/15 00:29:04;;;;;;;;;;;;;;;17.79;100.00;99802.75;5014007;28;872;-59
2023/09/15 00:31:31;;;;;;;;;;;;;;;17.83;100.00;99804.22;5014041;28;828;-60
2023/09/15 00:33:58;;;;;;;;;;;;;;;17.85;100.00;99800.97;5014200;28;840;-59
2023/09/15 00:36:24;;;;;;;;;;;;;;;17.86;100.00;99799.72;5013891;28;867;-59
2023/09/15 00:38:52;;;;;;;;;;;;;;;17.94;100.00;99801.06;4996392;28;1623;-59
2023/09/15 00:41:18;;;;;;;;;;;;;;;18.00;100.00;99793.66;5013834;28;864;-59
2023/09/15 00:43:45;;;;;;;;;;;;;;;18.01;100.00;99800.03;5013822;28;880;-59
2023/09/15 00:46:13;;;;;;;;;;;;;;;18.02;100.00;99793.19;5013692;28;1882;-59
2023/09/15 00:48:40;;;;;;;;;;;;;;;18.05;100.00;99801.47;5013780;28;928;-59
2023/09/15 00:51:07;;;;;;;;;;;;;;;18.07;100.00;99806.59;4996070;28;1554;-59
2023/09/15 00:53:37;;;;;;;;;;;;;;;18.09;100.00;99812.50;5013601;28;881;-59
2023/09/15 00:56:05;;;;;;;;;;;;;;;18.13;100.00;99799.97;5013432;28;872;-59
2023/09/15 00:58:35;;;;;;;;;;;;;;;18.16;100.00;99804.66;4995971;28;1201;-59
2023/09/15 01:01:06;;;;;;;;;;;;;;;18.13;100.00;99807.56;5013433;28;885;-59
2023/09/15 01:03:35;;;;;;;;;;;;;;;18.07;100.00;99803.78;5013691;28;856;-60
2023/09/15 01:06:03;;;;;;;;;;;;;;;18.01;100.00;99805.59;5013314;28;1886;-59
2023/09/15 01:08:30;;;;;;;;;;;;;;;17.96;100.00;99815.38;5013319;28;1187;-59
2023/09/15 01:11:01;;;;;;;;;;;;;;;17.94;100.00;99806.66;5013485;28;1295;-59
2023/09/15 01:13:28;;;;;;;;;;;;;;;17.93;100.00;99807.88;5013188;28;1192;-60
2023/09/15 01:16:06;;;;;;;;;;;;;;;17.93;100.00;99807.88;5013235;28;883;-59
2023/09/15 01:18:52;;;;;;;;;;;;;;;17.94;100.00;99812.25;5013102;28;868;-59
2023/09/15 01:21:38;;;;;;;;;;;;;;;18.01;100.00;99816.78;5013197;28;943;-59
2023/09/15 01:24:14;;;;;;;;;;;;;;;17.99;100.00;99819.25;5012894;28;900;-59
2023/09/15 01:26:43;;;;;;;;;;;;;;;17.91;100.00;99818.75;5013047;28;832;-59
2023/09/15 01:29:31;;;;;;;;;;;;;;;17.86;100.00;99819.31;5013212;28;860;-59
2023/09/15 01:32:00;;;;;;;;;;;;;;;17.83;100.00;99812.59;5012952;28;1234;-59
2023/09/15 01:34:27;;;;;;;;;;;;;;;17.83;100.00;99812.59;5012935;28;891;-60
2023/09/15 01:36:54;;;;;;;;;;;;;;;17.87;100.00;99815.28;5012834;28;907;-59
2023/09/15 01:39:21;;;;;;;;;;;;;;;17.92;100.00;99807.13;5013177;28;852;-59
2023/09/15 01:41:48;;;;;;;;;;;;;;;18.03;100.00;99812.34;4995237;28;1360;-60
2023/09/15 01:44:15;;;;;;;;;;;;;;;18.06;100.00;99811.41;5012749;28;1941;-60
2023/09/15 01:46:43;;;;;;;;;;;;;;;18.07;100.00;99803.78;5012582;28;869;-60
2023/09/15 01:49:10;;;;;;;;;;;;;;;18.07;100.00;99810.19;5012626;28;825;-60
2023/09/15 01:51:37;;;;;;;;;;;;;;;18.14;100.00;99811.94;5012610;28;888;-60
2023/09/15 01:54:05;;;;;;;;;;;;;;;18.17;100.00;99811.81;5012403;28;879;-59
2023/09/15 01:56:31;;;;;;;;;;;;;;;18.10;100.00;99823.25;5012588;28;844;-60
2023/09/15 01:58:58;;;;;;;;;;;;;;;18.00;100.00;99816.03;5012441;28;847;-59
2023/09/15 02:01:25;;;;;;;;;;;;;;;17.92;100.00;99818.31;5012717;28;816;-59
2023/09/15 02:03:52;;;;;;;;;;;;;;;17.85;100.00;99817.75;5012307;28;832;-60
2023/09/15 02:06:19;;;;;;;;;;;;;;;17.81;100.00;99817.06;5012392;28;1955;-59
2023/09/15 02:08:46;;;;;;;;;;;;;;;17.79;100.00;99820.31;5012296;28;864;-59
2023/09/15 02:11:13;;;;;;;;;;;;;;;17.75;100.00;99826.03;5012349;28;863;-59
2023/09/15 02:13:41;;;;;;;;;;;;;;;17.73;100.00;99828.50;5012247;28;1071;-59
2023/09/15 02:16:08;;;;;;;;;;;;;;;17.69;100.00;99827.06;5012269;28;828;-59
2023/09/15 02:18:35;;;;;;;;;;;;;;;17.63;100.00;99834.47;5012493;28;891;-59
2023/09/15 02:21:03;;;;;;;;;;;;;;;17.53;100.00;99827.97;5012435;28;875;-60
2023/09/15 02:23:30;;;;;;;;;;;;;;;17.40;100.00;99828.00;5012038;28;978;-60
2023/09/15 02:25:57;;;;;;;;;;;;;;;17.30;100.00;99831.91;5012161;28;1922;-60
2023/09/15 02:28:24;;;;;;;;;;;;;;;17.27;100.00;99825.22;5012331;28;842;-59
2023/09/15 02:30:51;;;;;;;;;;;;;;;17.28;100.00;99817.59;5012287;28;833;-60
2023/09/15 02:33:19;;;;;;;;;;;;;;;17.35;100.00;99814.59;5012149;28;876;-59
2023/09/15 02:35:46;;;;;;;;;;;;;;;17.45;100.00;99810.66;5011992;28;838;-59
2023/09/15 02:38:13;;;;;;;;;;;;;;;17.54;100.00;99807.19;4994390;28;867;-60
2023/09/15 02:40:41;;;;;;;;;;;;;;;17.70;100.00;99821.00;5011880;28;828;-60
2023/09/15 02:43:10;;;;;;;;;;;;;;;17.82;100.00;99829.81;5011940;28;871;-59
2023/09/15 02:45:38;;;;;;;;;;;;;;;17.74;100.00;99820.88;5014801;28;1955;-59
2023/09/15 02:48:05;;;;;;;;;;;;;;;17.61;100.00;99817.34;5015906;28;891;-60
2023/09/15 02:50:32;;;;;;;;;;;;;;;17.41;100.00;99820.38;5015952;28;824;-59
2023/09/15 02:53:00;;;;;;;;;;;;;;;17.25;100.00;99815.72;5015678;28;900;-59
2023/09/15 02:55:27;;;;;;;;;;;;;;;17.14;100.00;99818.84;5015896;28;809;-59
2023/09/15 02:57:54;;;;;;;;;;;;;;;17.08;100.00;99821.41;5015759;28;884;-59
2023/09/15 03:00:21;;;;;;;;;;;;;;;17.07;100.00;99819.06;5016028;28;896;-59
2023/09/15 03:02:48;;;;;;;;;;;;;;;17.07;100.00;99811.50;5015691;28;821;-59
2023/09/15 03:05:14;;;;;;;;;;;;;;;17.11;100.00;99805.78;5015748;28;1953;-59
2023/09/15 03:07:42;;;;;;;;;;;;;;;17.18;100.00;99811.16;5015536;28;862;-60
2023/09/15 03:10:09;;;;;;;;;;;;;;;17.24;100.00;99811.34;5015573;28;864;-59
2023/09/15 03:12:37;;;;;;;;;;;;;;;17.30;100.00;99804.78;5015815;28;1004;-60
2023/09/15 03:15:06;;;;;;;;;;;;;;;17.38;100.00;99813.69;5015215;28;1370;-59
2023/09/15 03:17:34;;;;;;;;;;;;;;;17.45;100.00;99813.44;5015517;28;871;-59
2023/09/15 03:20:11;;;;;;;;;;;;;;;17.50;100.00;99809.31;5015352;28;856;-59
2023/09/15 03:22:38;;;;;;;;;;;;;;;17.58;100.00;99816.25;5015257;28;884;-59
2023/09/15 03:25:06;;;;;;;;;;;;;;;17.62;100.00;99816.09;5015195;28;1902;-60
2023/09/15 03:27:33;;;;;;;;;;;;;;;17.61;100.00;99825.75;5015285;28;876;-59
2023/09/15 03:29:58;;;;;;;;;;;;;;;17.49;100.00;99835.69;4997662;28;1260;-60
2023/09/15 03:32:25;;;;;;;;;;;;;;;17.38;100.00;99836.03;5015017;28;931;-59
2023/09/15 03:34:53;;;;;;;;;;;;;;;17.31;100.00;99841.88;5015201;28;825;-59
2023/09/15 03:37:19;;;;;;;;;;;;;;;17.32;100.00;99840.63;4997400;28;892;-59
2023/09/15 03:39:46;;;;;;;;;;;;;;;17.36;100.00;99830.13;5015047;28;870;-60
2023/09/15 03:42:14;;;;;;;;;;;;;;;17.44;100.00;99844.66;5014974;28;813;-59
2023/09/15 03:44:41;;;;;;;;;;;;;;;17.52;100.00;99843.19;5015013;28;1906;-60
2023/09/15 03:47:09;;;;;;;;;;;;;;;17.57;100.00;99845.41;5014891;28;884;-60
2023/09/15 03:49:36;;;;;;;;;;;;;;;17.59;100.00;99848.53;5014875;28;907;-60
2023/09/15 03:52:03;;;;;;;;;;;;;;;17.57;100.00;99842.63;5014741;28;868;-60
2023/09/15 03:54:30;;;;;;;;;;;;;;;17.58;100.00;99858.16;4997134;28;1158;-60
2023/09/15 03:56:57;;;;;;;;;;;;;;;17.64;100.00;99850.75;5014712;28;879;-59
2023/09/15 03:59:24;;;;;;;;;;;;;;;17.67;100.00;99858.25;5014727;28;888;-59
2023/09/15 04:01:51;;;;;;;;;;;;;;;17.73;100.00;99859.25;5014594;28;826;-59
2023/09/15 04:04:18;;;;;;;;;;;;;;;17.78;100.00;99859.91;5014497;28;1874;-59
2023/09/15 04:06:45;;;;;;;;;;;;;;;17.81;100.00;99868.16;5014567;28;919;-59
2023/09/15 04:09:12;;;;;;;;;;;;;;;17.83;100.00;99876.91;5014513;28;883;-59
2023/09/15 04:11:42;;;;;;;;;;;;;;;17.77;100.00;99878.69;5014503;28;836;-59
2023/09/15 04:14:10;;;;;;;;;;;;;;;17.68;100.00;99878.59;4986927;28;1293;-60
2023/09/15 04:16:38;;;;;;;;;;;;;;;17.64;100.00;99886.31;4994707;28;861;-59
2023/09/15 04:19:05;;;;;;;;;;;;;;;17.57;100.00;99878.94;4994854;28;832;-59
2023/09/15 04:21:34;;;;;;;;;;;;;;;17.53;100.00;99878.28;4994812;28;863;-59
2023/09/15 04:24:00;;;;;;;;;;;;;;;17.54;100.00;99893.81;4994493;28;840;-59
2023/09/15 04:26:27;;;;;;;;;;;;;;;17.58;100.00;99899.28;4993414;28;1910;-59
2023/09/15 04:28:54;;;;;;;;;;;;;;;17.60;100.00;99905.19;4994473;28;841;-59
2023/09/15 04:31:22;;;;;;;;;;;;;;;17.56;100.00;99902.53;4994542;28;848;-59
2023/09/15 04:33:49;;;;;;;;;;;;;;;17.44;100.00;99906.13;4994467;28;801;-60
2023/09/15 04:36:16;;;;;;;;;;;;;;;17.33;100.00;99898.06;4994443;28;914;-59
2023/09/15 04:38:43;;;;;;;;;;;;;;;17.36;100.00;99905.53;4994266;28;841;-59
2023/09/15 04:41:10;;;;;;;;;;;;;;;17.43;100.00;99902.53;4994319;28;923;-59
2023/09/15 04:43:37;;;;;;;;;;;;;;;17.52;100.00;99908.25;4994256;28;899;-59
2023/09/15 04:46:05;;;;;;;;;;;;;;;17.58;100.00;99911.25;4994271;28;1890;-59
2023/09/15 04:48:32;;;;;;;;;;;;;;;17.70;100.00;99910.44;4994121;28;836;-59
2023/09/15 04:50:59;;;;;;;;;;;;;;;17.79;100.00;99904.16;4993918;28;883;-59
2023/09/15 04:53:26;;;;;;;;;;;;;;;17.91;100.00;99914.59;4994120;28;849;-59
2023/09/15 04:55:52;;;;;;;;;;;;;;;18.00;100.00;99913.91;4993983;28;891;-59
2023/09/15 04:58:19;;;;;;;;;;;;;;;18.10;100.00;99909.19;4993982;28;853;-59
2023/09/15 05:00:48;;;;;;;;;;;;;;;18.15;100.00;99914.19;4993890;28;824;-60
2023/09/15 05:03:15;;;;;;;;;;;;;;;18.17;100.00;99915.28;4993849;28;937;-59
2023/09/15 05:05:43;;;;;;;;;;;;;;;18.23;100.00;99907.13;4993756;28;1928;-59
2023/09/15 05:08:10;;;;;;;;;;;;;;;18.30;100.00;99909.66;4992017;28;1220;-59
2023/09/15 05:10:37;;;;;;;;;;;;;;;18.42;100.00;99915.69;4993984;28;868;-59
2023/09/15 05:13:05;;;;;;;;;;;;;;;18.59;100.00;99914.25;4994292;28;1102;-59
2023/09/15 05:15:32;;;;;;;;;;;;;;;18.80;100.00;99918.34;5013253;28;872;-60
2023/09/15 05:17:58;;;;;;;;;;;;;;;18.96;100.00;99920.13;5013184;28;852;-60
2023/09/15 05:20:25;;;;;;;;;;;;;;;19.11;100.00;99918.34;5013075;28;903;-59
2023/09/15 05:22:51;;;;;;;;;;;;;;;19.22;100.00;99919.97;5013102;28;856;-59
2023/09/15 05:25:18;;;;;;;;;;;;;;;19.30;100.00;99924.06;5012988;28;1914;-59
2023/09/15 05:27:46;;;;;;;;;;;;;;;19.35;100.00;99924.25;5013097;28;829;-59
2023/09/15 05:30:15;;;;;;;;;;;;;;;19.49;100.00;99922.13;5012960;28;829;-59
2023/09/15 05:32:42;;;;;;;;;;;;;;;19.63;100.00;99929.16;5012946;28;857;-59
2023/09/15 05:35:10;;;;;;;;;;;;;;;19.83;100.00;99926.00;5012953;28;887;-59
2023/09/15 05:37:37;;;;;;;;;;;;;;;20.09;100.00;99930.09;5012925;28;863;-59
2023/09/15 05:40:04;;;;;;;;;;;;;;;20.31;100.00;99929.19;5012787;28;875;-59
2023/09/15 05:42:31;;;;;;;;;;;;;;;20.52;98.82;99928.25;5012753;28;844;-59
2023/09/15 05:44:59;;;;;;;;;;;;;;;20.72;97.43;99933.44;5012775;28;1915;-59
2023/09/15 05:47:26;;;;;;;;;;;;;;;20.89;95.73;99928.25;5012703;28;906;-59
2023/09/15 05:49:53;;;;;;;;;;;;;;;20.91;95.14;99933.38;5012576;28;872;-59
2023/09/15 05:52:21;;;;;;;;;;;;;;;20.98;95.18;99942.28;5012543;28;859;-59
2023/09/15 05:54:48;;;;;;;;;;;;;;;21.13;94.42;99939.59;5012872;28;1293;-59
2023/09/15 05:57:15;;;;;;;;;;;;;;;21.24;93.54;99947.53;5012560;28;1197;-59
2023/09/15 05:59:42;;;;;;;;;;;;;;;21.36;92.84;99945.78;5012639;28;887;-59
2023/09/15 06:02:09;;;;;;;;;;;;;;;21.50;92.00;99956.38;5012414;28;1276;-59
2023/09/15 06:04:37;;;;;;;;;;;;;;;21.54;90.15;99956.22;5012581;28;1953;-59
2023/09/15 06:07:04;;;;;;;;;;;;;;;21.60;89.28;99954.31;5012598;28;836;-59
2023/09/15 06:09:30;;;;;;;;;;;;;;;21.70;87.85;99953.03;5012350;28;935;-59
2023/09/15 06:11:57;;;;;;;;;;;;;;;21.85;86.11;99958.72;5012372;28;985;-60
2023/09/15 06:14:23;;;;;;;;;;;;;;;22.00;84.39;99961.63;4991181;28;1249;-59
2023/09/15 06:16:50;;;;;;;;;;;;;;;22.16;83.02;99954.78;4992636;28;817;-59
2023/09/15 06:19:17;;;;;;;;;;;;;;;22.28;81.82;99955.84;4991601;28;884;-59
2023/09/15 06:21:44;;;;;;;;;;;;;;;22.40;80.79;99952.78;4992572;28;797;-59
2023/09/15 06:24:11;;;;;;;;;;;;;;;22.57;79.44;99957.94;4992497;28;817;-59
2023/09/15 06:26:38;;;;;;;;;;;;;;;22.77;77.96;99963.72;4992427;28;1966;-59
2023/09/15 06:29:05;;;;;;;;;;;;;;;22.96;76.84;99955.88;4992344;28;900;-59
2023/09/15 06:31:32;;;;;;;;;;;;;;;23.08;76.52;99961.75;4992372;28;868;-59
2023/09/15 06:34:00;;;;;;;;;;;;;;;23.17;75.57;99954.00;4992379;28;860;-59
2023/09/15 06:36:27;;;;;;;;;;;;;;;23.33;74.54;99961.16;4992404;28;1252;-59
2023/09/15 06:38:54;;;;;;;;;;;;;;;23.52;73.86;99961.72;4992495;28;892;-59
2023/09/15 06:41:22;;;;;;;;;;;;;;;23.70;72.84;99957.13;4992186;28;1184;-59
2023/09/15 07:12:38;;;;;;;;;;;;;;;24.83;63.65;99985.59;5973286;23;1529;-68
2023/09/15 07:15:06;;;;;;;;;;;;;;;24.72;63.40;99984.72;5031445;28;859;-67
2023/09/15 07:17:31;;;;;;;;;;;;;;;24.71;62.91;99985.97;5031404;28;835;-67
2023/09/15 07:19:58;;;;;;;;;;;;;;;24.65;62.41;99988.75;5031351;28;828;-67
2023/09/15 07:22:27;;;;;;;;;;;;;;;24.75;61.98;99992.19;5031364;28;851;-67
2023/09/15 07:24:54;;;;;;;;;;;;;;;24.83;62.01;99994.06;5031186;28;1910;-67
2023/09/15 07:27:23;;;;;;;;;;;;;;;24.97;61.06;99995.25;5031317;28;816;-68
2023/09/15 07:29:50;;;;;;;;;;;;;;;24.96;61.03;100007.84;5031196;28;888;-68
2023/09/15 07:32:18;;;;;;;;;;;;;;;24.96;60.39;100007.84;5034946;28;899;-68
2023/09/15 07:34:45;;;;;;;;;;;;;;;24.95;60.02;100003.47;5017189;28;919;-68
2023/09/15 07:37:12;;;;;;;;;;;;;;;24.93;59.96;100008.84;5034838;28;911;-68
2023/09/15 07:39:39;;;;;;;;;;;;;;;24.83;59.97;100007.44;5034909;28;875;-67
2023/09/15 07:42:08;;;;;;;;;;;;;;;24.75;60.00;100012.75;5034798;28;887;-67
2023/09/15 07:44:36;;;;;;;;;;;;;;;24.66;60.32;100012.88;5034629;28;1890;-68
2023/09/15 07:47:06;;;;;;;;;;;;;;;24.68;60.35;100018.06;5034774;28;919;-68
2023/09/15 07:49:33;;;;;;;;;;;;;;;24.64;60.46;100012.59;5034708;28;1315;-68
2023/09/15 07:52:00;;;;;;;;;;;;;;;24.65;60.08;100014.94;5035361;28;789;-68
2023/09/15 07:54:28;;;;;;;;;;;;;;;24.71;59.93;100017.06;5034660;28;1302;-68
2023/09/15 07:56:56;;;;;;;;;;;;;;;24.68;59.77;100016.00;5034998;28;914;-68
2023/09/15 07:59:23;;;;;;;;;;;;;;;24.67;59.74;100019.34;5034631;28;899;-68
2023/09/15 08:01:51;;;;;;;;;;;;;;;24.74;59.39;100016.84;5034612;28;832;-68
2023/09/15 08:04:18;;;;;;;;;;;;;;;24.83;59.36;100019.50;5034455;28;950;-68
2023/09/15 08:06:46;;;;;;;;;;;;;;;24.89;59.22;100019.59;5034299;28;1886;-68
2023/09/15 08:09:13;;;;;;;;;;;;;;;24.98;58.73;100025.06;5034318;28;875;-67
2023/09/15 08:11:40;;;;;;;;;;;;;;;25.02;57.58;100013.56;5034284;28;986;-67
2023/09/15 08:14:07;;;;;;;;;;;;;;;25.10;56.86;100025.22;5034006;28;1258;-68
2023/09/15 08:16:34;;;;;;;;;;;;;;;25.13;56.68;100024.97;5034174;28;808;-68
2023/09/15 08:19:01;;;;;;;;;;;;;;;25.22;56.13;100024.84;5034116;28;828;-68
2023/09/15 08:21:28;;;;;;;;;;;;;;;25.33;54.61;100020.56;5034125;28;828;-68
2023/09/15 08:23:56;;;;;;;;;;;;;;;25.45;53.96;100020.19;5034108;28;851;-68
2023/09/15 08:26:25;;;;;;;;;;;;;;;25.53;53.79;100019.72;5033902;28;1971;-68
2023/09/15 08:28:52;;;;;;;;;;;;;;;25.65;53.81;100024.22;5033895;28;828;-68
2023/09/15 08:31:19;;;;;;;;;;;;;;;25.67;53.82;100021.66;5034088;28;820;-67
2023/09/15 08:33:45;;;;;;;;;;;;;;;25.81;54.18;100017.13;5016014;28;1229;-69
2023/09/15 08:36:12;;;;;;;;;;;;;;;25.88;53.96;100019.47;5033866;28;879;-68
2023/09/15 08:38:38;;;;;;;;;;;;;;;25.82;54.14;100022.28;5033737;28;816;-68
2023/09/15 08:41:12;;;;;;;;;;;;;;;25.82;54.18;100013.00;5033692;28;966;-68
2023/09/15 08:43:40;;;;;;;;;;;;;;;25.85;53.79;100015.59;5032706;28;848;-68
2023/09/15 08:46:08;;;;;;;;;;;;;;;25.82;54.21;100010.19;5033647;28;1942;-68
2023/09/15 08:48:40;;;;;;;;;;;;;;;25.72;54.84;100012.41;5033534;28;860;-68
2023/09/15 08:51:07;;;;;;;;;;;;;;;25.69;55.88;100013.44;5033516;28;879;-68
2023/09/15 08:53:35;;;;;;;;;;;;;;;25.69;56.27;100002.13;5033481;28;820;-68
2023/09/15 08:56:03;;;;;;;;;;;;;;;25.71;56.52;99996.72;5033382;28;840;-68
2023/09/15 08:58:30;;;;;;;;;;;;;;;25.78;56.30;100001.91;5033570;28;887;-68
2023/09/15 09:00:58;;;;;;;;;;;;;;;25.89;56.24;100004.06;5033678;28;832;-67
2023/09/15 09:03:25;;;;;;;;;;;;;;;26.01;55.89;100004.91;5033798;28;843;-68
2023/09/15 09:05:52;;;;;;;;;;;;;;;26.04;55.84;100004.69;5033468;28;1981;-68
2023/09/15 09:08:20;;;;;;;;;;;;;;;26.12;56.02;99999.34;5033496;28;836;-67
2023/09/15 09:10:47;;;;;;;;;;;;;;;26.20;56.09;100000.41;5033234;28;827;-68
2023/09/15 09:13:14;;;;;;;;;;;;;;;26.27;55.75;99991.44;5033288;28;1283;-68
2023/09/15 09:15:42;;;;;;;;;;;;;;;26.32;55.06;100001.22;5033118;28;890;-68
2023/09/15 09:18:16;;;;;;;;;;;;;;;26.34;54.88;100000.72;5033357;28;859;-67
2023/09/15 09:20:43;;;;;;;;;;;;;;;26.33;55.36;99985.81;5032986;28;890;-68
2023/09/15 09:23:10;;;;;;;;;;;;;;;26.31;55.66;99993.22;5032860;28;863;-68
2023/09/15 09:25:39;;;;;;;;;;;;;;;26.18;56.00;99994.47;5032780;28;1977;-68
2023/09/15 09:28:07;;;;;;;;;;;;;;;25.99;56.24;99999.78;5032814;28;848;-68
2023/09/15 09:30:34;;;;;;;;;;;;;;;25.85;56.11;99997.84;5032797;28;837;-68
2023/09/15 09:33:03;;;;;;;;;;;;;;;25.78;56.38;99993.44;5014900;28;1177;-67
2023/09/15 09:35:30;;;;;;;;;;;;;;;25.74;56.92;99992.09;5032826;28;919;-67
2023/09/15 09:37:59;;;;;;;;;;;;;;;25.73;57.08;99988.47;5032519;28;891;-67
2023/09/15 09:40:26;;;;;;;;;;;;;;;25.79;56.32;99982.88;5032448;28;892;-67
2023/09/15 09:42:55;;;;;;;;;;;;;;;25.81;56.18;99985.97;5032477;28;824;-68
2023/09/15 09:45:30;;;;;;;;;;;;;;;25.85;56.54;99986.53;5032254;28;1953;-68
2023/09/15 09:48:00;;;;;;;;;;;;;;;25.81;56.93;99986.75;5032203;28;820;-67
2023/09/15 09:50:27;;;;;;;;;;;;;;;25.76;57.75;99981.06;5032176;28;882;-67
2023/09/15 09:52:54;;;;;;;;;;;;;;;25.62;58.56;99982.75;5032232;28;816;-68
2023/09/15 09:55:24;;;;;;;;;;;;;;;25.47;60.09;99974.41;5032141;28;843;-67
2023/09/15 09:57:51;;;;;;;;;;;;;;;25.38;61.22;99980.25;5032060;28;871;-67
2023/09/15 10:00:20;;;;;;;;;;;;;;;25.22;62.60;99978.81;5032223;28;876;-67
2023/09/15 10:02:47;;;;;;;;;;;;;;;25.08;63.58;99980.47;5032233;28;953;-68
2023/09/15 10:05:14;;;;;;;;;;;;;;;25.00;64.50;99974.47;5032075;28;1957;-68
2023/09/15 10:07:45;;;;;;;;;;;;;;;24.90;64.97;99975.91;5032082;28;903;-68
2023/09/15 10:10:12;;;;;;;;;;;;;;;24.82;65.89;99972.75;5032019;28;879;-67
2023/09/15 10:12:37;;;;;;;;;;;;;;;24.75;67.21;99973.19;5030622;28;1323;-67
2023/09/15 10:15:06;;;;;;;;;;;;;;;24.71;68.12;99966.97;5032059;28;820;-68
2023/09/15 10:17:34;;;;;;;;;;;;;;;24.70;68.18;99970.28;5031986;28;852;-68
2023/09/15 10:20:00;;;;;;;;;;;;;;;24.71;68.34;99977.50;5031929;28;813;-68
2023/09/15 10:22:27;;;;;;;;;;;;;;;24.73;68.01;99972.91;5031808;28;864;-67
2023/09/15 10:24:57;;;;;;;;;;;;;;;24.86;67.61;99978.19;5031878;28;1918;-68
2023/09/15 10:27:26;;;;;;;;;;;;;;;24.97;67.56;99975.47;5031908;28;1246;-68
2023/09/15 10:29:53;;;;;;;;;;;;;;;25.08;66.91;99966.31;5031926;28;834;-67
2023/09/15 10:32:20;;;;;;;;;;;;;;;25.19;66.48;99965.66;5031925;28;887;-67
2023/09/15 10:34:47;;;;;;;;;;;;;;;25.34;65.88;99968.38;5031917;28;841;-68
2023/09/15 10:37:14;;;;;;;;;;;;;;;25.56;64.67;99965.75;5030582;28;1164;-68
2023/09/15 10:39:42;;;;;;;;;;;;;;;25.82;63.53;99960.00;5031713;28;828;-67
2023/09/15 10:42:10;;;;;;;;;;;;;;;26.15;61.78;99967.16;5032074;28;872;-68
2023/09/15 10:44:36;;;;;;;;;;;;;;;26.42;60.05;99967.81;5013849;28;1898;-68
2023/09/15 10:47:14;;;;;;;;;;;;;;;26.66;58.11;99958.88;5013967;28;1459;-68
2023/09/15 10:49:47;;;;;;;;;;;;;;;27.03;56.12;99949.41;5031545;28;883;-67
2023/09/15 10:52:15;;;;;;;;;;;;;;;27.44;54.09;99943.25;5031847;28;855;-68
2023/09/15 10:54:42;;;;;;;;;;;;;;;27.84;52.46;99944.00;5031630;28;840;-68
2023/09/15 10:57:08;;;;;;;;;;;;;;;28.38;50.86;99951.31;5031993;28;840;-68
2023/09/15 10:59:35;;;;;;;;;;;;;;;28.99;47.97;99941.69;5031563;28;839;-69
2023/09/15 11:02:02;;;;;;;;;;;;;;;29.68;46.08;99951.22;5031565;28;886;-69
2023/09/15 11:04:30;;;;;;;;;;;;;;;30.08;44.49;99941.00;5031497;28;887;-69
2023/09/15 11:06:57;;;;;;;;;;;;;;;30.06;43.94;99934.28;5035026;28;1882;-70
2023/09/15 11:09:25;;;;;;;;;;;;;;;29.73;44.33;99930.50;5035433;28;1327;-69
2023/09/15 11:11:52;;;;;;;;;;;;;;;29.47;44.88;99931.00;5034299;28;1180;-70
2023/09/15 11:14:20;;;;;;;;;;;;;;;29.06;45.55;99932.63;5035500;28;1488;-68
2023/09/15 11:16:51;;;;;;;;;;;;;;;28.95;46.37;99934.75;5035654;28;816;-68
2023/09/15 11:19:18;;;;;;;;;;;;;;;29.14;46.40;99923.53;5035364;28;876;-68
2023/09/15 11:21:46;;;;;;;;;;;;;;;29.57;45.47;99922.88;5035181;28;849;-68
2023/09/15 11:24:13;;;;;;;;;;;;;;;29.69;45.16;99922.25;5035260;28;832;-67
2023/09/15 11:26:47;;;;;;;;;;;;;;;29.62;45.06;99919.22;5035029;28;1918;-70
2023/09/15 11:29:14;;;;;;;;;;;;;;;29.42;45.38;99909.81;5035156;28;910;-68
2023/09/15 11:31:42;;;;;;;;;;;;;;;29.21;46.09;99911.56;5035024;28;796;-68
2023/09/15 11:34:13;;;;;;;;;;;;;;;29.45;46.21;99908.75;5035267;28;831;-69
2023/09/15 11:36:41;;;;;;;;;;;;;;;30.55;45.05;99902.84;5034881;28;875;-69
2023/09/15 11:39:12;;;;;;;;;;;;;;;31.56;42.63;99902.56;5034797;28;882;-68
2023/09/15 11:41:40;;;;;;;;;;;;;;;32.00;41.13;99900.94;5034818;28;835;-69
2023/09/15 11:44:08;;;;;;;;;;;;;;;31.87;41.02;99909.50;5034802;28;863;-69
2023/09/15 11:46:37;;;;;;;;;;;;;;;32.06;40.87;99903.69;5034715;28;1894;-69
2023/09/15 11:49:05;;;;;;;;;;;;;;;32.29;40.04;99893.31;5034692;28;975;-68
2023/09/15 11:51:31;;;;;;;;;;;;;;;31.94;39.59;99895.34;5033460;28;1184;-67
2023/09/15 11:53:58;;;;;;;;;;;;;;;31.65;40.42;99899.28;5034578;28;874;-68
2023/09/15 11:56:26;;;;;;;;;;;;;;;31.35;40.87;99903.16;5034618;28;897;-67
2023/09/15 11:58:53;;;;;;;;;;;;;;;31.03;42.48;99901.13;5034461;28;883;-68
2023/09/15 12:01:24;;;;;;;;;;;;;;;30.75;43.57;99898.69;5034494;28;891;-67
2023/09/15 12:03:50;;;;;;;;;;;;;;;30.64;44.71;99896.75;5034391;28;1023;-68
2023/09/15 12:06:18;;;;;;;;;;;;;;;30.59;45.05;99897.59;5016584;28;1953;-68
2023/09/15 12:08:47;;;;;;;;;;;;;;;30.92;44.64;99895.59;5034273;28;852;-69
2023/09/15 12:11:15;;;;;;;;;;;;;;;31.30;44.08;99892.59;5034155;28;977;-69
2023/09/15 12:13:42;;;;;;;;;;;;;;;31.55;43.92;99893.22;5034122;28;1438;-69
2023/09/15 12:16:19;;;;;;;;;;;;;;;31.64;42.85;99886.31;5033911;28;863;-68
2023/09/15 12:18:47;;;;;;;;;;;;;;;32.07;42.81;99880.28;5032143;28;1494;-69
2023/09/15 12:21:15;;;;;;;;;;;;;;;32.53;41.71;99880.09;5034023;28;949;-68
2023/09/15 12:23:42;;;;;;;;;;;;;;;32.87;41.07;99880.06;5033991;28;864;-68
2023/09/15 12:26:12;;;;;;;;;;;;;;;33.05;40.60;99872.59;5033965;28;1970;-68
2023/09/15 12:28:41;;;;;;;;;;;;;;;33.02;40.33;99875.81;5033989;28;852;-67
2023/09/15 12:31:14;;;;;;;;;;;;;;;32.64;41.45;99870.47;5033807;28;918;-67
2023/09/15 12:33:42;;;;;;;;;;;;;;;32.22;42.62;99864.63;5033881;28;883;-67
2023/09/15 12:36:10;;;;;;;;;;;;;;;31.78;43.88;99867.84;5033782;28;863;-68
2023/09/15 12:38:37;;;;;;;;;;;;;;;31.06;45.29;99868.63;5033586;28;947;-67
2023/09/15 12:41:03;;;;;;;;;;;;;;;30.57;46.60;99866.00;5033763;28;927;-68
2023/09/15 12:43:30;;;;;;;;;;;;;;;30.07;47.73;99867.44;5033649;28;833;-67
2023/09/15 12:45:57;;;;;;;;;;;;;;;29.69;48.98;99858.81;5033594;28;1950;-69
2023/09/15 12:48:24;;;;;;;;;;;;;;;29.41;49.88;99859.88;5033558;28;816;-69
2023/09/15 12:50:53;;;;;;;;;;;;;;;29.35;50.79;99862.00;5033629;28;899;-69
2023/09/15 12:53:21;;;;;;;;;;;;;;;29.47;50.59;99852.06;5033458;28;898;-70
2023/09/15 12:55:48;;;;;;;;;;;;;;;29.81;51.17;99859.47;5033565;28;1289;-69
2023/09/15 12:58:17;;;;;;;;;;;;;;;29.99;50.63;99861.59;5033495;28;918;-70
2023/09/15 13:00:45;;;;;;;;;;;;;;;30.13;50.32;99857.53;5033541;28;824;-69
2023/09/15 13:03:13;;;;;;;;;;;;;;;30.24;49.84;99852.97;5015611;28;1284;-69
2023/09/15 13:05:40;;;;;;;;;;;;;;;30.35;49.42;99855.69;5033202;28;1899;-68
2023/09/15 13:08:07;;;;;;;;;;;;;;;30.36;49.13;99853.59;5033336;28;887;-69
2023/09/15 13:10:35;;;;;;;;;;;;;;;30.20;49.39;99853.28;5033169;28;863;-70
2023/09/15 13:13:02;;;;;;;;;;;;;;;30.28;49.61;99857.09;5032743;28;1411;-68
2023/09/15 13:15:28;;;;;;;;;;;;;;;30.25;49.96;99851.66;5033182;28;847;-68
2023/09/15 13:17:56;;;;;;;;;;;;;;;30.02;50.40;99851.19;5033027;28;871;-68
2023/09/15 13:20:23;;;;;;;;;;;;;;;29.86;50.93;99853.72;5032878;28;898;-68
2023/09/15 13:22:48;;;;;;;;;;;;;;;29.61;51.31;99846.47;5033172;28;800;-68
2023/09/15 13:25:16;;;;;;;;;;;;;;;29.31;52.29;99839.53;5032846;28;1906;-71
2023/09/15 13:27:43;;;;;;;;;;;;;;;29.01;53.82;99838.75;5033111;28;894;-69
2023/09/15 13:30:13;;;;;;;;;;;;;;;28.80;54.57;99841.25;5032651;28;883;-68